sensor_id;sensor_type;location;lat;lon;timestamp;P1;durP1;ratioP1;P2;durP2;ratioP2
64598;SDS011;51008;51.504;11.548;2023-11-21T00:02:43;12.30;;;6.03;;
64598;SDS011;51008;51.504;11.548;2023-11-21T00:07:45;15.80;;;6.50;;
64598;SDS011;51008;51.504;11.548;2023-11-21T00:12:46;14.85;;;6.55;;
64598;SDS011;51008;51.504;11.548;2023-11-21T00:17:47;13.40;;;5.72;;
64598;SDS011;51008;51.504;11.548;2023-11-21T00:22:48;15.15;;;6.55;;
64598;SDS011;51008;51.504;11.548;2023-11-21T00:27:49;15.68;;;7.10;;
64598;SDS011;51008;51.504;11.548;2023-11-21T00:32:50;14.50;;;7.95;;
64598;SDS011;51008;51.504;11.548;2023-11-21T00:37:51;18.35;;;8.50;;
64598;SDS011;51008;51.504;11.548;2023-11-21T00:42:52;18.38;;;8.20;;
64598;SDS011;51008;51.504;11.548;2023-11-21T00:47:53;14.52;;;7.72;;
64598;SDS011;51008;51.504;11.548;2023-11-21T00:52:54;16.20;;;8.23;;
64598;SDS011;51008;51.504;11.548;2023-11-21T00:57:56;20.10;;;8.13;;
64598;SDS011;51008;51.504;11.548;2023-11-21T01:02:57;17.90;;;8.90;;
64598;SDS011;51008;51.504;11.548;2023-11-21T01:07:58;21.73;;;9.82;;
64598;SDS011;51008;51.504;11.548;2023-11-21T01:12:59;15.15;;;8.35;;
64598;SDS011;51008;51.504;11.548;2023-11-21T01:18:00;17.50;;;9.07;;
64598;SDS011;51008;51.504;11.548;2023-11-21T01:23:01;16.83;;;9.27;;
64598;SDS011;51008;51.504;11.548;2023-11-21T01:28:02;19.90;;;9.52;;
64598;SDS011;51008;51.504;11.548;2023-11-21T01:33:03;22.77;;;9.60;;
64598;SDS011;51008;51.504;11.548;2023-11-21T01:38:05;16.80;;;8.75;;
64598;SDS011;51008;51.504;11.548;2023-11-21T01:43:06;21.23;;;9.73;;
64598;SDS011;51008;51.504;11.548;2023-11-21T01:48:07;16.80;;;9.05;;
64598;SDS011;51008;51.504;11.548;2023-11-21T01:53:10;20.40;;;9.90;;
64598;SDS011;51008;51.504;11.548;2023-11-21T01:58:12;19.55;;;8.90;;
64598;SDS011;51008;51.504;11.548;2023-11-21T02:03:13;20.65;;;9.10;;
64598;SDS011;51008;51.504;11.548;2023-11-21T02:08:14;20.55;;;9.27;;
64598;SDS011;51008;51.504;11.548;2023-11-21T02:13:17;19.60;;;8.88;;
64598;SDS011;51008;51.504;11.548;2023-11-21T02:18:18;13.15;;;8.55;;
64598;SDS011;51008;51.504;11.548;2023-11-21T02:23:19;16.67;;;8.90;;
64598;SDS011;51008;51.504;11.548;2023-11-21T02:28:21;18.83;;;9.88;;
64598;SDS011;51008;51.504;11.548;2023-11-21T02:33:22;18.48;;;9.13;;
64598;SDS011;51008;51.504;11.548;2023-11-21T02:38:23;22.10;;;9.77;;
64598;SDS011;51008;51.504;11.548;2023-11-21T02:43:24;26.95;;;11.10;;
64598;SDS011;51008;51.504;11.548;2023-11-21T02:48:25;19.95;;;9.27;;
64598;SDS011;51008;51.504;11.548;2023-11-21T02:53:27;18.65;;;8.93;;
64598;SDS011;51008;51.504;11.548;2023-11-21T02:58:28;18.00;;;9.80;;
64598;SDS011;51008;51.504;11.548;2023-11-21T03:03:48;19.38;;;8.40;;
64598;SDS011;51008;51.504;11.548;2023-11-21T03:08:55;19.17;;;9.27;;
64598;SDS011;51008;51.504;11.548;2023-11-21T03:13:56;14.73;;;7.90;;
64598;SDS011;51008;51.504;11.548;2023-11-21T03:18:58;22.50;;;9.40;;
64598;SDS011;51008;51.504;11.548;2023-11-21T03:23:59;14.57;;;8.50;;
64598;SDS011;51008;51.504;11.548;2023-11-21T03:29:00;19.73;;;8.30;;
64598;SDS011;51008;51.504;11.548;2023-11-21T03:34:01;16.38;;;8.77;;
64598;SDS011;51008;51.504;11.548;2023-11-21T03:39:02;14.82;;;7.60;;
64598;SDS011;51008;51.504;11.548;2023-11-21T03:44:04;15.57;;;7.55;;
64598;SDS011;51008;51.504;11.548;2023-11-21T03:49:05;16.02;;;7.32;;
64598;SDS011;51008;51.504;11.548;2023-11-21T03:54:06;13.48;;;7.47;;
64598;SDS011;51008;51.504;11.548;2023-11-21T03:59:07;15.98;;;7.10;;
64598;SDS011;51008;51.504;11.548;2023-11-21T04:04:08;14.98;;;7.00;;
64598;SDS011;51008;51.504;11.548;2023-11-21T04:09:10;16.10;;;6.63;;
64598;SDS011;51008;51.504;11.548;2023-11-21T04:14:11;14.93;;;6.20;;
64598;SDS011;51008;51.504;11.548;2023-11-21T04:19:12;17.83;;;7.32;;
64598;SDS011;51008;51.504;11.548;2023-11-21T04:24:13;12.98;;;5.93;;
64598;SDS011;51008;51.504;11.548;2023-11-21T04:29:14;18.92;;;6.00;;
64598;SDS011;51008;51.504;11.548;2023-11-21T04:34:15;12.07;;;5.90;;
64598;SDS011;51008;51.504;11.548;2023-11-21T04:39:16;12.55;;;5.93;;
64598;SDS011;51008;51.504;11.548;2023-11-21T04:44:17;12.27;;;5.88;;
64598;SDS011;51008;51.504;11.548;2023-11-21T04:49:18;20.00;;;6.53;;
64598;SDS011;51008;51.504;11.548;2023-11-21T04:54:19;16.88;;;6.60;;
64598;SDS011;51008;51.504;11.548;2023-11-21T04:59:21;15.75;;;7.20;;
64598;SDS011;51008;51.504;11.548;2023-11-21T05:04:22;16.52;;;6.47;;
64598;SDS011;51008;51.504;11.548;2023-11-21T05:09:23;15.85;;;6.10;;
64598;SDS011;51008;51.504;11.548;2023-11-21T05:14:24;12.80;;;5.90;;
64598;SDS011;51008;51.504;11.548;2023-11-21T05:19:25;12.27;;;5.90;;
64598;SDS011;51008;51.504;11.548;2023-11-21T05:24:26;13.70;;;6.18;;
64598;SDS011;51008;51.504;11.548;2023-11-21T05:29:27;13.73;;;5.38;;
64598;SDS011;51008;51.504;11.548;2023-11-21T05:34:28;18.10;;;5.97;;
64598;SDS011;51008;51.504;11.548;2023-11-21T05:39:29;14.30;;;5.78;;
64598;SDS011;51008;51.504;11.548;2023-11-21T05:44:30;12.43;;;5.30;;
64598;SDS011;51008;51.504;11.548;2023-11-21T05:49:31;13.40;;;5.00;;
64598;SDS011;51008;51.504;11.548;2023-11-21T05:54:32;10.68;;;4.80;;
64598;SDS011;51008;51.504;11.548;2023-11-21T05:59:33;11.75;;;5.50;;
64598;SDS011;51008;51.504;11.548;2023-11-21T06:04:34;13.07;;;5.28;;
64598;SDS011;51008;51.504;11.548;2023-11-21T06:09:36;13.85;;;5.68;;
64598;SDS011;51008;51.504;11.548;2023-11-21T06:14:37;12.77;;;5.85;;
64598;SDS011;51008;51.504;11.548;2023-11-21T06:19:38;15.32;;;5.93;;
64598;SDS011;51008;51.504;11.548;2023-11-21T06:24:42;14.80;;;6.18;;
64598;SDS011;51008;51.504;11.548;2023-11-21T06:29:43;14.48;;;5.50;;
64598;SDS011;51008;51.504;11.548;2023-11-21T06:34:44;13.27;;;5.20;;
64598;SDS011;51008;51.504;11.548;2023-11-21T06:39:45;21.55;;;6.18;;
64598;SDS011;51008;51.504;11.548;2023-11-21T06:44:47;13.40;;;5.05;;
64598;SDS011;51008;51.504;11.548;2023-11-21T06:49:48;16.30;;;6.40;;
64598;SDS011;51008;51.504;11.548;2023-11-21T06:54:49;17.45;;;6.65;;
64598;SDS011;51008;51.504;11.548;2023-11-21T06:59:50;29.35;;;9.43;;
64598;SDS011;51008;51.504;11.548;2023-11-21T07:04:51;18.42;;;7.78;;
64598;SDS011;51008;51.504;11.548;2023-11-21T07:09:52;19.88;;;8.13;;
64598;SDS011;51008;51.504;11.548;2023-11-21T07:14:53;21.95;;;7.55;;
64598;SDS011;51008;51.504;11.548;2023-11-21T07:19:54;15.55;;;6.70;;
64598;SDS011;51008;51.504;11.548;2023-11-21T07:24:55;19.88;;;7.32;;
64598;SDS011;51008;51.504;11.548;2023-11-21T07:29:56;18.15;;;6.70;;
64598;SDS011;51008;51.504;11.548;2023-11-21T07:34:57;19.30;;;7.25;;
64598;SDS011;51008;51.504;11.548;2023-11-21T07:39:59;16.77;;;6.47;;
64598;SDS011;51008;51.504;11.548;2023-11-21T07:45:00;19.45;;;8.07;;
64598;SDS011;51008;51.504;11.548;2023-11-21T07:50:04;17.83;;;7.18;;
64598;SDS011;51008;51.504;11.548;2023-11-21T07:55:06;21.42;;;7.10;;
64598;SDS011;51008;51.504;11.548;2023-11-21T08:00:07;19.45;;;7.78;;
64598;SDS011;51008;51.504;11.548;2023-11-21T08:05:13;18.60;;;8.35;;
64598;SDS011;51008;51.504;11.548;2023-11-21T08:10:14;18.63;;;7.90;;
64598;SDS011;51008;51.504;11.548;2023-11-21T08:15:15;13.60;;;7.75;;
64598;SDS011;51008;51.504;11.548;2023-11-21T08:20:16;12.82;;;6.53;;
64598;SDS011;51008;51.504;11.548;2023-11-21T08:25:17;9.05;;;5.35;;
64598;SDS011;51008;51.504;11.548;2023-11-21T08:30:18;8.88;;;5.05;;
64598;SDS011;51008;51.504;11.548;2023-11-21T08:35:19;11.38;;;5.95;;
64598;SDS011;51008;51.504;11.548;2023-11-21T08:40:21;19.58;;;7.65;;
64598;SDS011;51008;51.504;11.548;2023-11-21T08:45:22;17.55;;;7.72;;
64598;SDS011;51008;51.504;11.548;2023-11-21T08:50:23;18.67;;;8.25;;
64598;SDS011;51008;51.504;11.548;2023-11-21T08:55:24;19.20;;;8.95;;
64598;SDS011;51008;51.504;11.548;2023-11-21T09:00:25;17.58;;;9.82;;
64598;SDS011;51008;51.504;11.548;2023-11-21T09:05:26;25.30;;;10.95;;
64598;SDS011;51008;51.504;11.548;2023-11-21T09:10:27;22.88;;;12.68;;
64598;SDS011;51008;51.504;11.548;2023-11-21T09:15:29;20.92;;;10.85;;
64598;SDS011;51008;51.504;11.548;2023-11-21T09:20:30;16.48;;;9.45;;
64598;SDS011;51008;51.504;11.548;2023-11-21T09:25:31;16.48;;;8.73;;
64598;SDS011;51008;51.504;11.548;2023-11-21T09:30:32;16.08;;;8.45;;
64598;SDS011;51008;51.504;11.548;2023-11-21T09:35:33;18.27;;;8.52;;
64598;SDS011;51008;51.504;11.548;2023-11-21T09:40:34;15.38;;;8.10;;
64598;SDS011;51008;51.504;11.548;2023-11-21T09:45:35;17.02;;;8.75;;
64598;SDS011;51008;51.504;11.548;2023-11-21T09:50:39;15.93;;;9.10;;
64598;SDS011;51008;51.504;11.548;2023-11-21T09:55:43;20.80;;;11.48;;
64598;SDS011;51008;51.504;11.548;2023-11-21T10:00:46;22.25;;;11.18;;
64598;SDS011;51008;51.504;11.548;2023-11-21T10:05:48;25.98;;;12.88;;
64598;SDS011;51008;51.504;11.548;2023-11-21T10:10:51;24.27;;;12.23;;
64598;SDS011;51008;51.504;11.548;2023-11-21T10:15:54;23.40;;;11.70;;
64598;SDS011;51008;51.504;11.548;2023-11-21T10:20:56;23.88;;;12.57;;
64598;SDS011;51008;51.504;11.548;2023-11-21T10:25:57;21.85;;;11.13;;
64598;SDS011;51008;51.504;11.548;2023-11-21T10:30:59;23.45;;;11.10;;
64598;SDS011;51008;51.504;11.548;2023-11-21T10:36:01;23.05;;;11.57;;
64598;SDS011;51008;51.504;11.548;2023-11-21T10:41:02;20.27;;;10.20;;
64598;SDS011;51008;51.504;11.548;2023-11-21T10:46:03;21.52;;;9.43;;
64598;SDS011;51008;51.504;11.548;2023-11-21T10:51:08;16.48;;;8.93;;
64598;SDS011;51008;51.504;11.548;2023-11-21T10:56:09;22.33;;;10.35;;
64598;SDS011;51008;51.504;11.548;2023-11-21T11:01:14;23.13;;;11.30;;
64598;SDS011;51008;51.504;11.548;2023-11-21T11:06:19;25.17;;;13.00;;
64598;SDS011;51008;51.504;11.548;2023-11-21T11:11:20;26.27;;;12.73;;
64598;SDS011;51008;51.504;11.548;2023-11-21T11:16:22;28.10;;;12.43;;
64598;SDS011;51008;51.504;11.548;2023-11-21T11:21:37;28.75;;;13.55;;
64598;SDS011;51008;51.504;11.548;2023-11-21T11:37:22;30.48;;;15.35;;
64598;SDS011;51008;51.504;11.548;2023-11-21T11:42:24;30.40;;;15.57;;
64598;SDS011;51008;51.504;11.548;2023-11-21T11:52:32;29.55;;;14.90;;
64598;SDS011;51008;51.504;11.548;2023-11-21T11:57:41;39.90;;;13.83;;
64598;SDS011;51008;51.504;11.548;2023-11-21T12:02:46;23.83;;;13.88;;
64598;SDS011;51008;51.504;11.548;2023-11-21T12:07:49;27.15;;;13.98;;
64598;SDS011;51008;51.504;11.548;2023-11-21T12:12:59;21.88;;;12.70;;
64598;SDS011;51008;51.504;11.548;2023-11-21T12:18:10;25.35;;;12.20;;
64598;SDS011;51008;51.504;11.548;2023-11-21T12:23:11;28.50;;;13.35;;
64598;SDS011;51008;51.504;11.548;2023-11-21T12:28:12;25.92;;;12.73;;
64598;SDS011;51008;51.504;11.548;2023-11-21T12:33:13;27.90;;;13.27;;
64598;SDS011;51008;51.504;11.548;2023-11-21T12:38:14;25.10;;;13.40;;
64598;SDS011;51008;51.504;11.548;2023-11-21T12:43:15;27.58;;;13.02;;
64598;SDS011;51008;51.504;11.548;2023-11-21T12:48:18;22.27;;;12.35;;
64598;SDS011;51008;51.504;11.548;2023-11-21T12:53:19;23.40;;;11.85;;
64598;SDS011;51008;51.504;11.548;2023-11-21T12:58:20;23.17;;;12.45;;
64598;SDS011;51008;51.504;11.548;2023-11-21T13:03:22;26.67;;;12.75;;
64598;SDS011;51008;51.504;11.548;2023-11-21T13:08:25;21.23;;;12.18;;
64598;SDS011;51008;51.504;11.548;2023-11-21T13:13:29;21.25;;;11.48;;
64598;SDS011;51008;51.504;11.548;2023-11-21T13:18:31;19.38;;;11.63;;
64598;SDS011;51008;51.504;11.548;2023-11-21T13:23:34;22.08;;;11.85;;
64598;SDS011;51008;51.504;11.548;2023-11-21T13:28:35;20.88;;;10.25;;
64598;SDS011;51008;51.504;11.548;2023-11-21T13:33:37;21.08;;;10.27;;
64598;SDS011;51008;51.504;11.548;2023-11-21T13:38:38;20.60;;;11.15;;
64598;SDS011;51008;51.504;11.548;2023-11-21T13:43:39;19.00;;;10.52;;
64598;SDS011;51008;51.504;11.548;2023-11-21T13:48:40;17.80;;;10.48;;
64598;SDS011;51008;51.504;11.548;2023-11-21T13:53:41;18.30;;;10.48;;
64598;SDS011;51008;51.504;11.548;2023-11-21T13:58:42;20.90;;;10.35;;
64598;SDS011;51008;51.504;11.548;2023-11-21T14:03:43;16.42;;;9.60;;
64598;SDS011;51008;51.504;11.548;2023-11-21T14:08:44;16.23;;;10.10;;
64598;SDS011;51008;51.504;11.548;2023-11-21T14:13:45;18.27;;;9.65;;
64598;SDS011;51008;51.504;11.548;2023-11-21T14:18:46;18.13;;;9.95;;
64598;SDS011;51008;51.504;11.548;2023-11-21T14:23:47;18.17;;;9.77;;
64598;SDS011;51008;51.504;11.548;2023-11-21T14:28:48;18.55;;;10.02;;
64598;SDS011;51008;51.504;11.548;2023-11-21T14:33:49;15.50;;;9.38;;
64598;SDS011;51008;51.504;11.548;2023-11-21T14:38:50;15.73;;;9.45;;
64598;SDS011;51008;51.504;11.548;2023-11-21T14:43:51;14.98;;;9.07;;
64598;SDS011;51008;51.504;11.548;2023-11-21T14:48:53;13.52;;;8.88;;
64598;SDS011;51008;51.504;11.548;2023-11-21T14:53:54;16.67;;;9.85;;
64598;SDS011;51008;51.504;11.548;2023-11-21T14:58:56;16.58;;;9.50;;
64598;SDS011;51008;51.504;11.548;2023-11-21T15:03:58;17.23;;;9.25;;
64598;SDS011;51008;51.504;11.548;2023-11-21T15:08:59;18.67;;;10.45;;
64598;SDS011;51008;51.504;11.548;2023-11-21T15:14:00;16.10;;;8.93;;
64598;SDS011;51008;51.504;11.548;2023-11-21T15:19:01;13.85;;;8.13;;
64598;SDS011;51008;51.504;11.548;2023-11-21T15:24:02;10.13;;;6.40;;
64598;SDS011;51008;51.504;11.548;2023-11-21T15:29:04;11.68;;;6.22;;
64598;SDS011;51008;51.504;11.548;2023-11-21T15:34:05;8.95;;;5.70;;
64598;SDS011;51008;51.504;11.548;2023-11-21T15:39:06;10.02;;;5.45;;
64598;SDS011;51008;51.504;11.548;2023-11-21T15:44:07;7.78;;;4.95;;
64598;SDS011;51008;51.504;11.548;2023-11-21T15:49:08;8.45;;;5.13;;
64598;SDS011;51008;51.504;11.548;2023-11-21T15:54:11;8.63;;;4.82;;
64598;SDS011;51008;51.504;11.548;2023-11-21T15:59:12;7.78;;;4.78;;
64598;SDS011;51008;51.504;11.548;2023-11-21T16:04:13;7.97;;;4.93;;
64598;SDS011;51008;51.504;11.548;2023-11-21T16:09:14;8.65;;;4.82;;
64598;SDS011;51008;51.504;11.548;2023-11-21T16:14:15;7.65;;;4.55;;
64598;SDS011;51008;51.504;11.548;2023-11-21T16:19:16;8.52;;;4.30;;
64598;SDS011;51008;51.504;11.548;2023-11-21T16:24:17;9.95;;;4.97;;
64598;SDS011;51008;51.504;11.548;2023-11-21T16:29:18;8.23;;;4.63;;
64598;SDS011;51008;51.504;11.548;2023-11-21T16:34:19;9.27;;;4.30;;
64598;SDS011;51008;51.504;11.548;2023-11-21T16:39:21;11.15;;;4.85;;
64598;SDS011;51008;51.504;11.548;2023-11-21T16:44:22;8.40;;;4.82;;
64598;SDS011;51008;51.504;11.548;2023-11-21T16:49:23;8.60;;;4.82;;
64598;SDS011;51008;51.504;11.548;2023-11-21T16:54:24;9.30;;;4.60;;
64598;SDS011;51008;51.504;11.548;2023-11-21T16:59:25;8.13;;;4.70;;
64598;SDS011;51008;51.504;11.548;2023-11-21T17:04:26;7.22;;;4.40;;
64598;SDS011;51008;51.504;11.548;2023-11-21T17:09:27;9.77;;;5.18;;
64598;SDS011;51008;51.504;11.548;2023-11-21T17:14:28;10.23;;;5.40;;
64598;SDS011;51008;51.504;11.548;2023-11-21T17:19:29;8.40;;;4.45;;
64598;SDS011;51008;51.504;11.548;2023-11-21T17:24:30;6.63;;;4.05;;
64598;SDS011;51008;51.504;11.548;2023-11-21T17:29:32;9.32;;;4.85;;
64598;SDS011;51008;51.504;11.548;2023-11-21T17:34:33;10.48;;;5.25;;
64598;SDS011;51008;51.504;11.548;2023-11-21T17:39:34;9.65;;;5.30;;
64598;SDS011;51008;51.504;11.548;2023-11-21T17:44:35;12.57;;;6.43;;
64598;SDS011;51008;51.504;11.548;2023-11-21T17:49:36;11.15;;;5.55;;
64598;SDS011;51008;51.504;11.548;2023-11-21T17:54:37;10.50;;;5.93;;
64598;SDS011;51008;51.504;11.548;2023-11-21T17:59:41;9.48;;;5.55;;
64598;SDS011;51008;51.504;11.548;2023-11-21T18:04:42;9.57;;;5.78;;
64598;SDS011;51008;51.504;11.548;2023-11-21T18:09:43;11.18;;;5.60;;
64598;SDS011;51008;51.504;11.548;2023-11-21T18:14:44;11.80;;;4.93;;
64598;SDS011;51008;51.504;11.548;2023-11-21T18:19:46;12.20;;;4.88;;
64598;SDS011;51008;51.504;11.548;2023-11-21T18:24:47;7.40;;;4.40;;
64598;SDS011;51008;51.504;11.548;2023-11-21T18:29:48;7.38;;;4.80;;
64598;SDS011;51008;51.504;11.548;2023-11-21T18:34:49;8.77;;;3.78;;
64598;SDS011;51008;51.504;11.548;2023-11-21T18:39:50;6.97;;;4.35;;
64598;SDS011;51008;51.504;11.548;2023-11-21T18:44:51;9.25;;;4.60;;
64598;SDS011;51008;51.504;11.548;2023-11-21T18:49:52;10.35;;;4.72;;
64598;SDS011;51008;51.504;11.548;2023-11-21T18:54:53;8.40;;;4.93;;
64598;SDS011;51008;51.504;11.548;2023-11-21T18:59:55;10.07;;;5.45;;
64598;SDS011;51008;51.504;11.548;2023-11-21T19:04:56;9.75;;;5.03;;
64598;SDS011;51008;51.504;11.548;2023-11-21T19:09:57;9.68;;;4.82;;
64598;SDS011;51008;51.504;11.548;2023-11-21T19:14:58;9.48;;;5.03;;
64598;SDS011;51008;51.504;11.548;2023-11-21T19:19:59;8.98;;;4.63;;
64598;SDS011;51008;51.504;11.548;2023-11-21T19:25:00;11.98;;;5.00;;
64598;SDS011;51008;51.504;11.548;2023-11-21T19:30:01;8.50;;;4.75;;
64598;SDS011;51008;51.504;11.548;2023-11-21T19:35:02;11.77;;;5.40;;
64598;SDS011;51008;51.504;11.548;2023-11-21T19:40:04;10.00;;;4.80;;
64598;SDS011;51008;51.504;11.548;2023-11-21T19:45:06;10.30;;;5.15;;
64598;SDS011;51008;51.504;11.548;2023-11-21T19:50:08;8.50;;;4.13;;
64598;SDS011;51008;51.504;11.548;2023-11-21T19:55:09;6.55;;;3.30;;
64598;SDS011;51008;51.504;11.548;2023-11-21T20:00:11;8.80;;;3.15;;
64598;SDS011;51008;51.504;11.548;2023-11-21T20:05:12;6.68;;;3.28;;
64598;SDS011;51008;51.504;11.548;2023-11-21T20:10:13;8.45;;;3.30;;
64598;SDS011;51008;51.504;11.548;2023-11-21T20:15:14;6.25;;;3.10;;
64598;SDS011;51008;51.504;11.548;2023-11-21T20:20:15;7.10;;;3.75;;
64598;SDS011;51008;51.504;11.548;2023-11-21T20:25:16;6.43;;;3.30;;
64598;SDS011;51008;51.504;11.548;2023-11-21T20:30:17;7.45;;;3.80;;
64598;SDS011;51008;51.504;11.548;2023-11-21T20:35:18;7.15;;;3.70;;
64598;SDS011;51008;51.504;11.548;2023-11-21T20:40:19;6.63;;;3.28;;
64598;SDS011;51008;51.504;11.548;2023-11-21T20:45:20;10.90;;;4.00;;
64598;SDS011;51008;51.504;11.548;2023-11-21T20:50:21;8.10;;;3.70;;
64598;SDS011;51008;51.504;11.548;2023-11-21T20:55:22;8.02;;;3.78;;
64598;SDS011;51008;51.504;11.548;2023-11-21T21:00:23;8.20;;;4.07;;
64598;SDS011;51008;51.504;11.548;2023-11-21T21:05:25;6.95;;;3.85;;
64598;SDS011;51008;51.504;11.548;2023-11-21T21:10:26;7.35;;;3.72;;
64598;SDS011;51008;51.504;11.548;2023-11-21T21:15:27;7.75;;;4.07;;
64598;SDS011;51008;51.504;11.548;2023-11-21T21:20:28;7.82;;;3.63;;
64598;SDS011;51008;51.504;11.548;2023-11-21T21:25:29;8.20;;;3.88;;
64598;SDS011;51008;51.504;11.548;2023-11-21T21:30:30;7.07;;;3.60;;
64598;SDS011;51008;51.504;11.548;2023-11-21T21:35:32;7.07;;;4.13;;
64598;SDS011;51008;51.504;11.548;2023-11-21T21:40:33;8.52;;;4.18;;
64598;SDS011;51008;51.504;11.548;2023-11-21T21:45:34;7.10;;;3.78;;
64598;SDS011;51008;51.504;11.548;2023-11-21T21:50:37;6.65;;;3.78;;
64598;SDS011;51008;51.504;11.548;2023-11-21T21:55:41;7.68;;;4.07;;
64598;SDS011;51008;51.504;11.548;2023-11-21T22:00:42;7.77;;;4.13;;
64598;SDS011;51008;51.504;11.548;2023-11-21T22:05:43;10.98;;;4.75;;
64598;SDS011;51008;51.504;11.548;2023-11-21T22:10:44;9.55;;;4.43;;
64598;SDS011;51008;51.504;11.548;2023-11-21T22:15:46;8.90;;;4.30;;
64598;SDS011;51008;51.504;11.548;2023-11-21T22:20:47;10.07;;;4.90;;
64598;SDS011;51008;51.504;11.548;2023-11-21T22:25:48;8.68;;;4.70;;
64598;SDS011;51008;51.504;11.548;2023-11-21T22:30:49;9.23;;;4.63;;
64598;SDS011;51008;51.504;11.548;2023-11-21T22:35:50;8.27;;;4.78;;
64598;SDS011;51008;51.504;11.548;2023-11-21T22:40:51;11.63;;;5.03;;
64598;SDS011;51008;51.504;11.548;2023-11-21T22:45:52;10.02;;;5.13;;
64598;SDS011;51008;51.504;11.548;2023-11-21T22:50:53;10.13;;;5.00;;
64598;SDS011;51008;51.504;11.548;2023-11-21T22:55:55;8.40;;;4.85;;
64598;SDS011;51008;51.504;11.548;2023-11-21T23:00:56;10.15;;;4.43;;
64598;SDS011;51008;51.504;11.548;2023-11-21T23:05:58;10.27;;;4.95;;
64598;SDS011;51008;51.504;11.548;2023-11-21T23:10:59;8.55;;;4.63;;
64598;SDS011;51008;51.504;11.548;2023-11-21T23:16:00;9.23;;;4.80;;
64598;SDS011;51008;51.504;11.548;2023-11-21T23:21:01;9.38;;;5.13;;
64598;SDS011;51008;51.504;11.548;2023-11-21T23:26:03;13.45;;;6.10;;
64598;SDS011;51008;51.504;11.548;2023-11-21T23:31:04;10.05;;;5.50;;
64598;SDS011;51008;51.504;11.548;2023-11-21T23:36:05;10.05;;;4.97;;
64598;SDS011;51008;51.504;11.548;2023-11-21T23:41:06;10.13;;;4.95;;
64598;SDS011;51008;51.504;11.548;2023-11-21T23:46:08;11.98;;;6.05;;
64598;SDS011;51008;51.504;11.548;2023-11-21T23:51:09;12.27;;;5.60;;
64598;SDS011;51008;51.504;11.548;2023-11-21T23:56:10;10.82;;;6.00;;
